Time;durP1;ratioP1;P1;durP2;ratioP2;P2;SDS_P1;SDS_P2;PMS_P1;PMS_P2;Temp;Humidity;BMP_temperature;BMP_pressure;BME280_temperature;BME280_humidity;BME280_pressure;Samples;Min_cycle;Max_cycle;Signal;HPM_P1;HPM_P2
2023/04/28 00:01:17;;;;;;;86.00;61.10;;;;;;;5.72;61.08;100903.01;113232;1236;24267;-80
2023/04/28 00:03:47;;;;;;;76.10;56.40;;;;;;;5.68;61.11;100904.94;113136;1235;23689;-80
2023/04/28 00:06:19;;;;;;;89.00;60.90;;;;;;;5.62;61.07;100905.69;113096;1236;21952;-79
2023/04/28 00:08:54;;;;;;;83.90;59.50;;;;;;;5.59;61.22;100902.61;113239;1236;21954;-80
2023/04/28 00:11:26;;;;;;;86.50;62.30;;;;;;;5.59;61.47;100901.23;112751;1240;22803;-79
2023/04/28 00:13:55;;;;;;;81.70;62.60;;;;;;;5.57;61.33;100908.14;112641;1244;21992;-79
2023/04/28 00:16:28;;;;;;;81.20;58.70;;;;;;;5.54;61.32;100908.16;112299;1245;22057;-80
2023/04/28 00:18:59;;;;;;;83.20;59.50;;;;;;;5.51;61.26;100907.52;112333;1245;21958;-79
2023/04/28 00:21:33;;;;;;;77.80;57.80;;;;;;;5.43;61.21;100912.07;112415;1245;21965;-80
2023/04/28 00:24:06;;;;;;;79.80;58.20;;;;;;;5.35;61.45;100911.77;112243;1247;21999;-81
2023/04/28 00:26:38;;;;;;;81.00;58.40;;;;;;;5.31;61.76;100911.80;112244;1247;22733;-80
2023/04/28 00:29:12;;;;;;;83.70;58.60;;;;;;;5.27;61.78;100907.69;112242;1248;22708;-81
2023/04/28 00:31:42;;;;;;;77.70;57.30;;;;;;;5.22;61.72;100913.23;112142;1243;23607;-80
2023/04/28 00:34:16;;;;;;;76.70;56.30;;;;;;;5.19;61.98;100916.54;112163;1248;22011;-79
2023/04/28 00:36:47;;;;;;;77.50;57.40;;;;;;;5.17;62.20;100912.92;112372;1246;24454;-79
2023/04/28 00:39:22;;;;;;;84.70;60.10;;;;;;;5.14;62.16;100914.51;112139;1246;23114;-79
2023/04/28 00:41:54;;;;;;;86.80;61.40;;;;;;;5.09;62.07;100916.61;112175;1244;21998;-80
2023/04/28 00:44:24;;;;;;;85.50;59.20;;;;;;;5.04;62.23;100914.91;112247;1244;22364;-80
2023/04/28 00:46:59;;;;;;;79.70;60.70;;;;;;;5.00;62.51;100916.48;111861;1248;22032;-80
2023/04/28 00:49:35;;;;;;;81.00;60.00;;;;;;;4.98;62.54;100915.11;111962;1249;21966;-80
2023/04/28 00:52:10;;;;;;;85.60;62.40;;;;;;;4.95;62.68;100915.31;112082;1247;23460;-79
2023/04/28 00:54:42;;;;;;;81.80;62.00;;;;;;;4.92;62.66;100913.25;111994;1246;22088;-80
2023/04/28 00:57:14;;;;;;;81.50;62.00;;;;;;;4.90;62.82;100914.13;112219;1246;21950;-79
2023/04/28 00:59:43;;;;;;;81.40;59.50;;;;;;;4.87;62.72;100911.56;111881;1246;22414;-79
2023/04/28 01:02:16;;;;;;;81.90;61.70;;;;;;;4.83;62.82;100909.00;111619;1249;23702;-80
2023/04/28 01:04:46;;;;;;;87.10;60.30;;;;;;;4.78;63.05;100908.67;112249;1246;21989;-81
2023/04/28 01:07:18;;;;;;;83.90;62.20;;;;;;;4.72;63.08;100910.77;112129;1244;22821;-79
2023/04/28 01:09:48;;;;;;;90.10;64.30;;;;;;;4.64;63.20;100913.39;112441;1245;23028;-78
2023/04/28 01:12:24;;;;;;;81.50;65.70;;;;;;;4.62;63.55;100914.26;111933;1246;21970;-80
2023/04/28 01:14:57;;;;;;;80.80;63.30;;;;;;;4.60;63.85;100914.10;111896;1246;21989;-79
2023/04/28 01:17:29;;;;;;;77.60;64.30;;;;;;;4.58;63.87;100913.60;112112;1246;21952;-77
2023/04/28 01:20:00;;;;;;;87.30;66.40;;;;;;;4.56;63.84;100909.63;112163;1246;23587;-78
2023/04/28 01:22:30;;;;;;;81.70;63.90;;;;;;;4.53;64.00;100909.13;111698;1246;21956;-76
2023/04/28 01:25:07;;;;;;;90.40;66.30;;;;;;;4.49;64.11;100907.60;112011;1246;22111;-79
2023/04/28 01:27:38;;;;;;;88.30;65.40;;;;;;;4.46;64.27;100905.70;112288;1242;23696;-80
2023/04/28 01:30:12;;;;;;;85.40;65.60;;;;;;;4.44;64.37;100909.85;112638;1235;22018;-79
2023/04/28 01:32:47;;;;;;;81.30;64.80;;;;;;;4.43;64.51;100905.22;112969;1235;21960;-80
2023/04/28 01:35:17;;;;;;;78.90;58.90;;;;;;;4.41;64.46;100905.56;113494;1235;22999;-78
2023/04/28 01:37:52;;;;;;;89.60;62.60;;;;;;;4.34;64.41;100906.44;113113;1235;21976;-79
2023/04/28 01:40:28;;;;;;;77.00;59.70;;;;;;;4.27;64.50;100906.80;113541;1235;21957;-79
2023/04/28 01:42:58;;;;;;;75.10;58.20;;;;;;;4.26;64.85;100904.21;112987;1236;23042;-81
2023/04/28 01:45:39;;;;;;;75.90;56.90;;;;;;;4.20;64.69;100902.85;113018;1236;23010;-79
2023/04/28 01:48:11;;;;;;;73.40;55.10;;;;;;;4.08;64.71;100901.52;113213;1235;22431;-79
2023/04/28 01:50:41;;;;;;;77.30;55.00;;;;;;;3.98;64.87;100898.09;113394;1234;22952;-79
2023/04/28 01:53:10;;;;;;;69.90;54.40;;;;;;;3.96;65.12;100897.74;113184;1235;21972;-79
2023/04/28 01:55:42;;;;;;;76.10;56.00;;;;;;;3.93;65.31;100899.82;113230;1235;22694;-78
2023/04/28 01:58:11;;;;;;;73.00;56.00;;;;;;;3.88;65.34;100896.91;113173;1235;21940;-79
2023/04/28 02:00:42;;;;;;;77.10;58.40;;;;;;;3.85;65.44;100898.80;112638;1242;22660;-80
2023/04/28 02:03:14;;;;;;;78.20;62.80;;;;;;;3.86;65.83;100898.11;112775;1241;22043;-78
2023/04/28 02:05:44;;;;;;;97.50;76.00;;;;;;;3.86;65.82;100900.52;112763;1241;22415;-77
2023/04/28 02:08:13;;;;;;;104.30;80.30;;;;;;;3.83;65.68;100897.95;112453;1241;21966;-79
2023/04/28 02:10:44;;;;;;;111.60;86.10;;;;;;;3.80;65.75;100898.12;112504;1242;21977;-78
2023/04/28 02:13:15;;;;;;;94.00;72.90;;;;;;;3.76;65.83;100894.69;112329;1241;22740;-79
2023/04/28 02:15:50;;;;;;;96.50;76.40;;;;;;;3.76;65.95;100892.63;112319;1241;21945;-78
2023/04/28 02:18:26;;;;;;;100.00;77.40;;;;;;;3.73;66.11;100896.25;112670;1236;23024;-79
2023/04/28 02:20:55;;;;;;;106.90;77.70;;;;;;;3.68;65.95;100899.52;113389;1236;21962;-79
2023/04/28 02:23:27;;;;;;;96.60;73.20;;;;;;;3.59;65.90;100898.30;113451;1234;22718;-78
2023/04/28 02:26:02;;;;;;;101.90;71.30;;;;;;;3.52;66.07;100899.00;112969;1236;22218;-79
2023/04/28 02:28:34;;;;;;;100.70;71.10;;;;;;;3.49;66.39;100897.80;112895;1241;22838;-79
2023/04/28 02:31:12;;;;;;;105.40;70.40;;;;;;;3.50;66.61;100897.10;113041;1240;21958;-79
2023/04/28 02:33:45;;;;;;;116.00;77.80;;;;;;;3.52;66.79;100897.63;112874;1241;21958;-79
2023/04/28 02:36:21;;;;;;;99.20;69.40;;;;;;;3.53;66.68;100899.34;113021;1241;23850;-79
2023/04/28 02:38:50;;;;;;;105.80;72.90;;;;;;;3.48;66.50;100896.94;113130;1232;21970;-79
2023/04/28 02:41:34;;;;;;;113.90;75.10;;;;;;;3.46;66.64;100895.39;113086;1238;23025;-79
2023/04/28 02:44:09;;;;;;;104.20;73.60;;;;;;;3.44;66.83;100896.08;112541;1241;22541;-78
2023/04/28 02:46:41;;;;;;;112.30;74.00;;;;;;;3.43;66.88;100896.42;113134;1236;21953;-79
2023/04/28 02:49:10;;;;;;;111.00;74.10;;;;;;;3.41;66.73;100899.17;113383;1236;23050;-79
2023/04/28 02:51:40;;;;;;;107.20;72.50;;;;;;;3.35;66.62;100896.75;112648;1241;23020;-78
2023/04/28 02:54:12;;;;;;;98.50;69.30;;;;;;;3.31;66.71;100897.61;112553;1240;22359;-79
2023/04/28 02:56:42;;;;;;;95.90;70.60;;;;;;;3.25;66.68;100901.05;112299;1246;21953;-79
2023/04/28 02:59:14;;;;;;;95.50;69.20;;;;;;;3.16;66.89;100898.98;112160;1245;23769;-78
2023/04/28 03:01:45;;;;;;;97.70;67.90;;;;;;;3.13;67.21;100896.39;111882;1249;21955;-79
2023/04/28 03:04:22;;;;;;;97.30;69.40;;;;;;;3.14;67.61;100895.89;112006;1249;21955;-79
2023/04/28 03:06:54;;;;;;;87.40;65.30;;;;;;;3.18;67.67;100898.98;111746;1249;22829;-79
2023/04/28 03:09:25;;;;;;;83.00;64.40;;;;;;;3.20;67.72;100893.47;111940;1246;23030;-78
2023/04/28 03:12:02;;;;;;;87.60;64.60;;;;;;;3.21;67.92;100892.44;112422;1246;21930;-78
2023/04/28 03:14:33;;;;;;;88.70;64.70;;;;;;;3.23;67.90;100893.66;111720;1249;23664;-78
2023/04/28 03:17:02;;;;;;;88.00;65.30;;;;;;;3.25;68.00;100892.97;111592;1251;22464;-78
2023/04/28 03:19:35;;;;;;;83.90;61.20;;;;;;;3.28;68.01;100894.69;111847;1246;22017;-78
2023/04/28 03:22:04;;;;;;;77.00;57.50;;;;;;;3.27;67.82;100894.00;112389;1242;21954;-78
2023/04/28 03:24:33;;;;;;;74.40;56.40;;;;;;;3.21;67.77;100893.81;112709;1242;21966;-78
2023/04/28 03:27:09;;;;;;;95.80;67.80;;;;;;;3.19;67.90;100893.98;112578;1242;21958;-79
2023/04/28 03:29:43;;;;;;;101.50;71.70;;;;;;;3.20;68.15;100892.97;112014;1245;23037;-79
2023/04/28 03:32:13;;;;;;;105.90;73.70;;;;;;;3.24;68.40;100895.20;112017;1249;23775;-80
2023/04/28 03:34:47;;;;;;;99.50;74.70;;;;;;;3.23;68.36;100885.57;111994;1249;22006;-80
2023/04/28 03:37:19;;;;;;;123.70;91.60;;;;;;;3.31;68.48;100893.84;112018;1249;22005;-78
2023/04/28 03:39:52;;;;;;;116.00;83.40;;;;;;;3.34;68.45;100897.95;112199;1245;23600;-78
2023/04/28 03:42:22;;;;;;;104.60;71.30;;;;;;;3.38;68.37;100893.48;112498;1244;21967;-79
2023/04/28 03:45:11;;;;;;;93.40;70.00;;;;;;;3.40;68.30;100894.35;111670;1252;21982;-80
2023/04/28 03:47:43;;;;;;;90.90;68.50;;;;;;;3.43;68.33;100895.55;111841;1247;23610;-78
2023/04/28 03:50:13;;;;;;;103.90;69.90;;;;;;;3.44;68.20;100894.35;111796;1246;22737;-79
2023/04/28 03:52:48;;;;;;;152.80;130.10;;;;;;;3.45;68.11;100893.50;112432;1246;23748;-81
2023/04/28 03:55:21;;;;;;;97.20;71.10;;;;;;;3.45;67.94;100895.20;112040;1249;21962;-79
2023/04/28 03:57:58;;;;;;;104.00;72.00;;;;;;;3.46;68.07;100898.32;111734;1249;23714;-79
2023/04/28 04:00:32;;;;;;;101.20;76.40;;;;;;;3.51;68.38;100893.51;111753;1249;22184;-78
2023/04/28 04:03:04;;;;;;;105.70;71.30;;;;;;;3.57;68.43;100894.00;112216;1245;21986;-77
2023/04/28 04:05:40;;;;;;;98.30;73.20;;;;;;;3.61;68.31;100891.09;112075;1245;21963;-79
2023/04/28 04:08:31;;;;;;;;;;;;;;;;;;;;;
2023/04/28 04:11:09;;;;;;;94.20;72.50;;;;;;;3.72;68.47;100895.38;112609;1239;22335;-79
2023/04/28 04:13:45;;;;;;;100.70;84.80;;;;;;;3.77;68.20;100898.65;112459;1241;21972;-79
2023/04/28 04:16:29;;;;;;;107.80;85.10;;;;;;;3.83;68.37;100897.09;112363;1241;21962;-79
2023/04/28 04:19:00;;;;;;;190.60;145.30;;;;;;;3.95;68.75;100896.55;112412;1241;22081;-78
2023/04/28 04:21:51;;;;;;;118.50;92.00;;;;;;;4.15;69.02;100897.03;112615;1241;22830;-79
2023/04/28 04:24:28;;;;;;;110.10;87.10;;;;;;;4.32;68.59;100898.88;113032;1241;21962;-79
2023/04/28 04:27:05;;;;;;;106.00;84.20;;;;;;;4.46;68.11;100895.71;112480;1241;22103;-78
2023/04/28 04:29:47;;;;;;;106.40;85.80;;;;;;;4.52;67.51;100895.69;112481;1241;22936;-79
2023/04/28 04:32:16;;;;;;;105.90;87.10;;;;;;;4.56;67.25;100896.71;113363;1235;21980;-80
2023/04/28 04:34:48;;;;;;;111.30;88.80;;;;;;;4.61;67.10;100897.38;113269;1235;22519;-79
2023/04/28 04:37:18;;;;;;;116.40;91.90;;;;;;;4.65;66.86;100898.91;113331;1236;21963;-79
2023/04/28 04:40:00;;;;;;;116.80;95.10;;;;;;;4.72;66.80;100897.15;113397;1236;21958;-79
2023/04/28 04:42:33;;;;;;;130.30;106.80;;;;;;;4.80;66.66;100895.05;112623;1243;21975;-80
2023/04/28 04:45:11;;;;;;;118.60;97.40;;;;;;;4.94;66.96;100892.89;111606;1250;21971;-80
2023/04/28 04:47:53;;;;;;;117.30;95.20;;;;;;;5.13;67.10;100893.63;112020;1249;21982;-79
2023/04/28 04:50:27;;;;;;;108.60;90.60;;;;;;;5.27;66.31;100898.19;111770;1249;22035;-80
2023/04/28 04:53:00;;;;;;;121.10;90.90;;;;;;;5.31;65.49;100900.06;111442;1250;21986;-78
2023/04/28 04:55:31;;;;;;;108.00;88.80;;;;;;;5.30;65.11;100901.11;111797;1247;23012;-77
2023/04/28 04:58:03;;;;;;;110.30;89.10;;;;;;;5.33;64.97;100902.12;111575;1252;22016;-80
2023/04/28 05:00:53;;;;;;;97.40;83.40;;;;;;;5.35;64.90;100901.24;111509;1252;22043;-79
2023/04/28 05:03:25;;;;;;;105.40;86.00;;;;;;;5.39;65.11;100902.94;111891;1247;23613;-78
2023/04/28 05:06:00;;;;;;;102.00;86.30;;;;;;;5.48;64.84;100901.84;111487;1251;22630;-77
2023/04/28 05:08:42;;;;;;;109.10;90.30;;;;;;;5.53;64.55;100906.46;112419;1244;21957;-77
2023/04/28 05:11:15;;;;;;;93.20;78.50;;;;;;;5.56;64.08;100905.23;112457;1244;21969;-76
2023/04/28 05:13:45;;;;;;;87.70;71.70;;;;;;;5.54;63.67;100906.27;112239;1244;23191;-78
2023/04/28 05:16:20;;;;;;;88.70;71.50;;;;;;;5.49;63.52;100906.31;111939;1246;21952;-77
2023/04/28 05:19:25;;;;;;;120.40;86.70;;;;;;;5.46;63.59;100902.19;111952;1247;23054;-78
2023/04/28 05:22:08;;;;;;;97.30;77.20;;;;;;;5.56;64.06;100900.73;111842;1246;21953;-76
2023/04/28 05:25:03;;;;;;;89.20;71.10;;;;;;;5.74;64.35;100899.19;112382;1241;22967;-76
2023/04/28 05:27:38;;;;;;;89.00;71.30;;;;;;;5.97;64.46;100900.21;112298;1241;22292;-76
2023/04/28 05:30:18;;;;;;;96.80;75.60;;;;;;;6.15;64.31;100901.41;112372;1241;21967;-76
2023/04/28 05:33:12;;;;;;;100.40;75.40;;;;;;;6.37;63.97;100901.52;112480;1241;23681;-76
2023/04/28 05:35:55;;;;;;;91.30;76.00;;;;;;;6.55;63.44;100897.33;113285;1236;22471;-78
2023/04/28 05:38:32;;;;;;;102.60;77.90;;;;;;;6.68;62.83;100892.68;113046;1236;21942;-77
2023/04/28 05:41:08;;;;;;;97.30;78.80;;;;;;;6.91;63.13;100889.93;112632;1242;22584;-76
2023/04/28 05:43:45;;;;;;;96.60;75.90;;;;;;;7.19;62.75;100891.95;112125;1247;22719;-76
2023/04/28 05:46:17;;;;;;;86.50;68.20;;;;;;;7.37;62.12;100893.05;112048;1246;23020;-78
2023/04/28 05:49:08;;;;;;;88.00;70.80;;;;;;;7.63;61.98;100894.70;111280;1252;21975;-76
2023/04/28 05:51:40;;;;;;;90.60;71.40;;;;;;;7.86;61.58;100895.01;111253;1256;23053;-76
2023/04/28 05:54:10;;;;;;;85.40;69.70;;;;;;;8.08;61.04;100895.80;111236;1256;21966;-76
2023/04/28 05:56:46;;;;;;;74.50;61.30;;;;;;;8.18;60.08;100892.85;110995;1256;23156;-78
2023/04/28 05:59:17;;;;;;;65.90;58.60;;;;;;;8.20;59.17;100891.94;111209;1250;21980;-77
2023/04/28 06:01:56;;;;;;;67.50;55.80;;;;;;;8.22;58.90;100895.20;111719;1246;21970;-76
2023/04/28 06:04:27;;;;;;;62.40;55.20;;;;;;;8.34;58.90;100893.56;111965;1245;22952;-76
2023/04/28 06:07:04;;;;;;;65.80;55.40;;;;;;;8.41;58.23;100888.60;112381;1241;22408;-75
2023/04/28 06:09:41;;;;;;;59.40;48.40;;;;;;;8.58;58.18;100890.34;112704;1236;22705;-76
2023/04/28 06:12:16;;;;;;;50.70;44.20;;;;;;;8.79;58.32;100894.06;112998;1236;23542;-76
2023/04/28 06:14:56;;;;;;;47.80;39.50;;;;;;;9.21;58.43;100894.15;112425;1241;21946;-75
2023/04/28 06:17:30;;;;;;;57.10;43.00;;;;;;;9.63;57.65;100890.00;112836;1239;21982;-76
2023/04/28 06:20:13;;;;;;;45.90;40.90;;;;;;;10.01;56.48;100884.84;112705;1239;21941;-77
2023/04/28 06:22:58;;;;;;;48.70;35.90;;;;;;;10.40;56.20;100879.45;112920;1239;23158;-76
2023/04/28 06:25:26;;;;;;;42.80;34.00;;;;;;;10.75;55.21;100878.80;113020;1239;22005;-80
2023/04/28 06:27:56;;;;;;;36.60;30.60;;;;;;;11.07;54.11;100879.02;113248;1239;21942;-77
2023/04/28 06:30:26;;;;;;;39.60;32.50;;;;;;;11.41;53.04;100874.10;112999;1239;21950;-77
2023/04/28 06:32:56;;;;;;;45.60;35.40;;;;;;;11.83;52.68;100874.64;113405;1235;22662;-78
2023/04/28 06:35:25;;;;;;;33.10;27.50;;;;;;;12.37;52.05;100874.81;113249;1236;21938;-78
2023/04/28 06:37:55;;;;;;;36.90;27.80;;;;;;;12.83;50.07;100876.05;113421;1236;22798;-77
2023/04/28 06:40:28;;;;;;;33.00;27.40;;;;;;;13.27;49.12;100872.94;113302;1235;22161;-76
2023/04/28 06:42:58;;;;;;;22.30;19.90;;;;;;;13.70;48.31;100871.86;113320;1235;24274;-77
2023/04/28 06:45:38;;;;;;;29.20;20.80;;;;;;;14.12;46.54;100867.92;113414;1235;21906;-77
2023/04/28 06:48:07;;;;;;;26.50;20.10;;;;;;;14.41;44.94;100860.33;113392;1235;23797;-79
2023/04/28 06:50:42;;;;;;;22.50;17.30;;;;;;;14.80;44.94;100861.70;113373;1235;22989;-79
2023/04/28 06:53:27;;;;;;;17.80;13.60;;;;;;;15.32;43.97;100860.64;113205;1235;22002;-80
2023/04/28 06:55:57;;;;;;;17.20;12.70;;;;;;;15.56;41.69;100860.30;113474;1236;21949;-78
2023/04/28 06:58:28;;;;;;;16.00;10.00;;;;;;;15.58;40.80;100856.67;113355;1235;22018;-77
2023/04/28 07:01:00;;;;;;;14.50;10.40;;;;;;;15.50;39.61;100849.89;113371;1235;21949;-79
2023/04/28 07:03:28;;;;;;;10.90;8.70;;;;;;;15.30;39.27;100847.23;113682;1235;23823;-79
2023/04/28 07:06:02;;;;;;;10.70;8.30;;;;;;;15.01;38.54;100844.61;113404;1235;21955;-79
2023/04/28 07:08:31;;;;;;;17.80;8.60;;;;;;;14.84;38.57;100839.45;113573;1235;21939;-77
2023/04/28 07:11:03;;;;;;;12.00;8.40;;;;;;;14.76;38.39;100837.39;113504;1235;21995;-78
2023/04/28 07:13:33;;;;;;;10.70;8.40;;;;;;;14.81;38.71;100841.19;113745;1235;22055;-79
2023/04/28 07:16:03;;;;;;;10.70;8.30;;;;;;;14.86;38.07;100838.48;113443;1236;22273;-80
2023/04/28 07:18:39;;;;;;;12.60;9.20;;;;;;;14.72;38.12;100814.79;113494;1235;23004;-80
2023/04/28 07:21:11;;;;;;;11.00;7.10;;;;;;;15.08;38.61;100833.02;112613;1243;21956;-75
2023/04/28 07:23:40;;;;;;;13.10;9.10;;;;;;;15.11;37.46;100833.76;112853;1243;21948;-78
2023/04/28 07:26:17;;;;;;;14.50;9.50;;;;;;;15.10;37.37;100832.26;112812;1243;22153;-78
2023/04/28 07:28:53;;;;;;;14.50;8.80;;;;;;;15.13;36.86;100826.81;113136;1242;21946;-79
2023/04/28 07:31:26;;;;;;;14.30;8.90;;;;;;;15.25;37.05;100824.14;112875;1242;22024;-79
2023/04/28 07:33:55;;;;;;;10.10;8.00;;;;;;;15.30;36.96;100822.19;112472;1242;21957;-77
2023/04/28 07:36:28;;;;;;;11.60;7.60;;;;;;;15.50;37.65;100823.41;112621;1242;22308;-80
2023/04/28 07:38:59;;;;;;;11.10;9.10;;;;;;;15.90;37.75;100817.69;112692;1239;21952;-80
2023/04/28 07:41:41;;;;;;;13.70;6.60;;;;;;;16.20;36.75;100814.34;112842;1239;23577;-78
2023/04/28 07:44:16;;;;;;;10.90;7.70;;;;;;;16.29;36.27;100812.14;112454;1245;21971;-79
2023/04/28 07:46:54;;;;;;;12.60;7.00;;;;;;;16.33;35.17;100810.69;112748;1235;22048;-77
2023/04/28 07:49:22;;;;;;;8.30;7.20;;;;;;;16.51;35.82;100809.02;112664;1242;23588;-76
2023/04/28 07:51:56;;;;;;;13.60;8.40;;;;;;;16.64;35.27;100802.80;112413;1242;21977;-77
2023/04/28 07:54:27;;;;;;;10.10;7.20;;;;;;;16.75;35.10;100805.02;112592;1242;21951;-78
2023/04/28 07:56:59;;;;;;;9.30;7.10;;;;;;;16.67;34.71;100799.64;112802;1242;21963;-77
2023/04/28 07:59:33;;;;;;;12.30;6.50;;;;;;;16.64;35.10;100794.77;112473;1243;21956;-77
2023/04/28 08:02:06;;;;;;;7.40;5.80;;;;;;;16.59;33.68;100788.16;112447;1242;21954;-77
2023/04/28 08:04:55;;;;;;;7.70;6.70;;;;;;;16.71;34.41;100787.66;112642;1242;21963;-78
2023/04/28 08:07:23;;;;;;;7.20;5.30;;;;;;;16.77;34.34;100782.06;112438;1243;22730;-77
2023/04/28 08:09:54;;;;;;;9.80;7.20;;;;;;;16.74;34.18;100785.23;113156;1236;24409;-78
2023/04/28 08:12:47;;;;;;;7.90;6.50;;;;;;;16.94;34.46;100782.88;113192;1235;21942;-79
2023/04/28 08:15:46;;;;;;;13.60;7.50;;;;;;;17.29;33.13;100781.20;113383;1236;21929;-77
2023/04/28 08:19:00;;;;;;;8.40;6.60;;;;;;;17.27;32.31;100774.79;113469;1236;22935;-76
2023/04/28 08:22:16;;;;;;;10.00;6.40;;;;;;;17.18;32.03;100769.91;113246;1236;21943;-77
2023/04/28 08:25:11;;;;;;;11.70;9.30;;;;;;;17.27;32.12;100766.91;113287;1235;23590;-76
2023/04/28 08:27:54;;;;;;;12.20;8.50;;;;;;;17.29;31.72;100761.67;113072;1236;22014;-77
2023/04/28 08:30:53;;;;;;;16.20;9.40;;;;;;;17.45;32.29;100756.70;113570;1235;22717;-82
2023/04/28 08:33:43;;;;;;;8.10;6.10;;;;;;;17.66;32.47;100757.51;113203;1235;21979;-78
2023/04/28 08:36:23;;;;;;;13.60;8.10;;;;;;;17.61;32.02;100753.74;113472;1236;23500;-78
2023/04/28 08:39:33;;;;;;;9.50;5.90;;;;;;;17.71;31.66;100746.83;113537;1236;22960;-77
2023/04/28 08:42:24;;;;;;;9.20;6.40;;;;;;;17.81;30.78;100741.14;113299;1236;22955;-78
2023/04/28 08:45:11;;;;;;;;;;;;;;;;;;;;;
2023/04/28 08:48:03;;;;;;;12.00;8.60;;;;;;;18.14;31.09;100737.70;112722;1241;22299;-79
2023/04/28 08:51:35;;;;;;;13.70;7.90;;;;;;;18.02;30.70;100735.96;112631;1241;21964;-76
2023/04/28 08:54:29;;;;;;;9.10;7.60;;;;;;;17.93;31.06;100732.47;112632;1241;24426;-76
2023/04/28 08:57:48;;;;;;;11.00;6.60;;;;;;;17.95;30.51;100726.85;112623;1241;21944;-76
2023/04/28 09:00:51;;;;;;;15.10;8.50;;;;;;;17.99;31.16;100719.80;112346;1241;21978;-77
2023/04/28 09:04:20;;;;;;;9.90;8.30;;;;;;;18.04;30.67;100709.94;113131;1236;21938;-78
2023/04/28 09:07:40;;;;;;;12.40;7.70;;;;;;;17.86;30.97;100713.88;113376;1236;21938;-77
2023/04/28 09:10:32;;;;;;;10.90;6.90;;;;;;;17.70;30.79;100712.05;113248;1236;21937;-77
2023/04/28 09:13:39;;;;;;;9.50;6.10;;;;;;;17.53;31.10;100709.40;109473;1236;4730370;-78
2023/04/28 09:16:24;;;;;;;14.30;9.20;;;;;;;17.61;31.22;100706.48;113094;1236;21958;-78
2023/04/28 09:19:17;;;;;;;9.80;7.30;;;;;;;17.72;30.29;100701.73;113269;1236;23575;-77
2023/04/28 09:21:59;;;;;;;15.30;10.40;;;;;;;17.80;30.44;100696.98;113316;1236;21976;-81
2023/04/28 09:25:30;;;;;;;10.10;6.70;;;;;;;18.10;30.43;100691.11;113323;1235;23698;-78
2023/04/28 09:28:33;;;;;;;17.40;9.70;;;;;;;18.47;30.06;100687.63;112647;1241;24274;-77
2023/04/28 09:31:28;;;;;;;17.80;7.50;;;;;;;18.31;28.60;100694.52;113021;1241;21915;-78
2023/04/28 09:35:06;;;;;;;9.00;6.50;;;;;;;18.13;29.30;100687.00;112973;1241;21988;-77
2023/04/28 09:38:14;;;;;;;7.90;6.20;;;;;;;18.70;29.75;100680.34;112819;1241;21995;-78
2023/04/28 09:41:06;;;;;;;9.40;6.50;;;;;;;19.04;28.70;100676.64;112821;1231;21947;-78
2023/04/28 09:44:43;;;;;;;;;;;;;;;;;;;;;
2023/04/28 09:48:12;;;;;;;9.40;5.60;;;;;;;19.47;28.33;100662.59;112784;1241;21956;-77
2023/04/28 09:51:29;;;;;;;11.10;6.80;;;;;;;19.76;27.79;100657.58;112765;1241;21937;-77
2023/04/28 09:55:22;;;;;;;;;;;;;;;;;;;;;
2023/04/28 09:58:49;;;;;;;10.80;5.90;;;;;;;19.86;27.42;100650.52;111991;1246;21978;-78
2023/04/28 10:02:28;;;;;;;;;;;;;;;20.09;27.00;100645.29;112194;1246;22017;-76
2023/04/28 10:05:30;;;;;;;10.60;6.60;;;;;;;20.10;26.99;100645.39;112223;1246;21986;-77
2023/04/28 10:08:44;;;;;;;11.00;6.30;;;;;;;20.45;26.86;100638.96;112188;1246;23584;-77
2023/04/28 10:12:37;;;;;;;9.30;6.60;;;;;;;21.07;26.52;100632.13;112042;1246;22255;-77
2023/04/28 10:15:56;;;;;;;;;;;;;;;;;;;;;
2023/04/28 10:22:21;;;;;;;;;;;;;;;;;;;;;
2023/04/28 10:25:38;;;;;;;8.40;6.60;;;;;;;22.13;23.85;100615.75;112905;1242;22657;-78
2023/04/28 10:28:26;;;;;;;9.90;5.90;;;;;;;22.12;24.48;100607.73;112052;1248;21967;-79
2023/04/28 10:31:37;;;;;;;12.50;6.60;;;;;;;22.43;24.44;100607.50;111747;1248;22084;-78
2023/04/28 10:34:24;;;;;;;12.10;6.30;;;;;;;22.34;23.76;100602.91;111902;1242;21950;-77
2023/04/28 10:38:02;;;;;;;10.20;5.80;;;;;;;21.82;23.63;100603.05;112290;1242;21980;-77
2023/04/28 10:41:16;;;;;;;;;;;;;;;21.23;24.63;100595.69;111486;1249;23048;-78
2023/04/28 10:44:50;;;;;;;7.20;5.80;;;;;;;21.12;25.80;100586.98;111406;1251;22795;-77
2023/04/28 10:48:25;;;;;;;10.20;6.50;;;;;;;21.08;25.55;100583.42;111008;1259;21976;-77
2023/04/28 10:51:08;;;;;;;8.90;5.70;;;;;;;20.78;25.50;100581.83;110706;1263;22205;-78
2023/04/28 10:54:11;;;;;;;13.70;7.60;;;;;;;20.58;25.64;100577.52;110096;1268;22458;-77
2023/04/28 10:57:37;;;;;;;;;;;;;;;;;;;;;
2023/04/28 11:00:57;;;;;;;;;;;;;;;;;;;;;
2023/04/28 11:07:13;;;;;;;9.30;6.00;;;;;;;19.13;26.52;100554.54;110297;1265;23457;-76
2023/04/28 11:09:48;;;;;;;11.40;6.90;;;;;;;18.91;26.32;100557.23;109754;1256;21979;-78
2023/04/28 11:12:20;;;;;;;12.20;7.80;;;;;;;18.67;26.55;100551.33;110315;1263;23958;-78
2023/04/28 11:15:17;;;;;;;12.60;7.60;;;;;;;18.53;27.35;100550.34;110277;1262;22040;-78
2023/04/28 11:17:56;;;;;;;9.30;6.80;;;;;;;18.57;27.89;100549.34;110948;1257;22211;-75
2023/04/28 11:20:35;;;;;;;17.30;7.30;;;;;;;18.62;27.96;100546.91;111406;1252;21969;-78
2023/04/28 11:23:03;;;;;;;10.50;7.00;;;;;;;18.67;28.00;100551.52;111470;1252;23625;-77
2023/04/28 11:25:56;;;;;;;7.90;5.90;;;;;;;18.69;27.64;100552.24;111108;1258;21962;-77
2023/04/28 11:28:29;;;;;;;11.60;6.70;;;;;;;18.60;27.62;100546.53;111229;1255;21934;-77
2023/04/28 11:31:17;;;;;;;10.90;7.20;;;;;;;18.58;27.94;100547.84;111235;1254;23956;-76
2023/04/28 11:34:21;;;;;;;10.00;7.50;;;;;;;18.54;27.96;100547.95;111206;1254;21989;-77
2023/04/28 11:37:02;;;;;;;14.10;7.30;;;;;;;18.38;27.60;100539.32;111397;1254;23026;-76
2023/04/28 11:39:53;;;;;;;13.20;7.00;;;;;;;18.12;27.55;100536.35;111237;1254;21991;-77
2023/04/28 11:42:59;;;;;;;9.50;6.40;;;;;;;17.83;28.00;100530.27;111270;1254;23352;-76
2023/04/28 11:45:57;;;;;;;10.60;7.00;;;;;;;17.72;28.23;100529.58;111927;1248;23040;-76
2023/04/28 11:48:50;;;;;;;16.00;8.20;;;;;;;17.72;28.65;100530.30;111832;1248;21972;-78
2023/04/28 11:51:40;;;;;;;;;;;;;;;17.84;28.80;100526.75;112502;1241;23575;-77
2023/04/28 11:55:03;;;;;;;11.50;7.10;;;;;;;17.89;28.96;100521.11;112568;1241;23685;-77
2023/04/28 11:57:49;;;;;;;16.60;10.00;;;;;;;17.98;28.89;100521.20;112481;1242;21976;-79
2023/04/28 12:01:09;;;;;;;30.10;24.20;;;;;;;18.01;28.80;100524.04;112882;1241;23640;-80
2023/04/28 12:04:41;;;;;;;23.50;20.10;;;;;;;18.03;29.03;100523.34;112239;1246;21936;-77
2023/04/28 12:07:52;;;;;;;11.90;8.20;;;;;;;18.21;29.09;100514.05;111413;1250;21969;-78
2023/04/28 12:10:28;;;;;;;11.00;7.30;;;;;;;18.40;29.08;100515.09;111115;1256;22063;-76
2023/04/28 12:13:21;;;;;;;11.10;8.60;;;;;;;18.51;28.76;100511.35;111155;1255;21996;-76
2023/04/28 12:16:07;;;;;;;13.60;7.40;;;;;;;18.51;28.58;100509.59;111275;1254;23722;-76
2023/04/28 12:18:58;;;;;;;8.50;6.30;;;;;;;18.56;28.79;100505.17;111261;1255;22147;-76
2023/04/28 12:21:27;;;;;;;13.30;6.60;;;;;;;18.66;28.79;100507.45;111396;1251;22449;-73
2023/04/28 12:23:56;;;;;;;10.70;5.90;;;;;;;18.73;28.51;100502.94;111667;1249;22900;-74
2023/04/28 12:26:25;;;;;;;9.60;7.00;;;;;;;18.82;28.44;100497.92;111970;1247;21998;-75
2023/04/28 12:28:54;;;;;;;11.30;6.60;;;;;;;18.84;28.24;100490.59;112449;1241;22832;-76
2023/04/28 12:31:23;;;;;;;13.30;7.60;;;;;;;18.88;28.08;100497.17;112756;1241;21943;-76
2023/04/28 12:33:54;;;;;;;12.40;8.30;;;;;;;18.87;28.17;100495.52;112719;1241;21950;-76
2023/04/28 12:36:23;;;;;;;10.20;6.70;;;;;;;18.88;27.87;100493.11;112833;1241;22026;-75